createdAt,value
2018-04-23T00:00:45.561Z,25.9
2018-04-23T00:01:35.613Z,25.9
2018-04-23T00:02:25.188Z,25.9
2018-04-23T00:03:15.176Z,25.9
2018-04-23T00:04:05.555Z,25.9
2018-04-23T00:04:55.346Z,25.9
2018-04-23T00:05:45.701Z,26
2018-04-23T00:06:35.829Z,25.9
2018-04-23T00:07:25.817Z,25.9
2018-04-23T00:08:16.155Z,26
2018-04-23T00:09:05.911Z,25.9
2018-04-23T00:09:56.261Z,25.9
2018-04-23T00:10:45.801Z,25.9
2018-04-23T00:11:35.863Z,25.9
2018-04-23T00:12:25.688Z,25.9
2018-04-23T00:13:15.670Z,25.9
2018-04-23T00:14:06.293Z,25.9
2018-04-23T00:14:56.102Z,26
2018-04-23T00:15:46.461Z,25.9
2018-04-23T00:16:36.229Z,25.9
2018-04-23T00:17:26.536Z,26
2018-04-23T00:18:16.633Z,25.9
2018-04-23T00:19:05.859Z,25.9
2018-04-23T00:19:57.039Z,25.9
2018-04-23T00:20:47.164Z,25.9
2018-04-23T00:21:36.329Z,25.9
2018-04-23T00:22:26.945Z,25.9
2018-04-23T00:23:17.318Z,26
2018-04-23T00:24:07.339Z,25.9
2018-04-23T00:24:56.591Z,26
2018-04-23T00:25:47.207Z,25.9
2018-04-23T00:26:37.263Z,25.9
2018-04-23T00:27:27.358Z,25.9
2018-04-23T00:28:17.666Z,25.9
2018-04-23T00:29:07.755Z,25.9
2018-04-23T00:29:57.524Z,25.9
2018-04-23T00:30:47.650Z,25.9
2018-04-23T00:31:37.387Z,25.9
2018-04-23T00:32:27.453Z,25.9
2018-04-23T00:33:18.078Z,25.9
2018-04-23T00:34:07.635Z,25.9
2018-04-23T00:34:57.365Z,26
2018-04-23T00:35:47.978Z,25.9
2018-04-23T00:36:38.305Z,25.9
2018-04-23T00:37:28.132Z,25.9
2018-04-23T00:38:18.432Z,25.9
2018-04-23T00:39:08.011Z,25.9
2018-04-23T00:39:58.091Z,25.9
2018-04-23T00:40:48.604Z,25.9
2018-04-23T00:41:38.711Z,25.9
2018-04-23T00:42:28.010Z,25.9
2018-04-23T00:43:18.540Z,25.9
2018-04-23T00:44:08.119Z,25.9
2018-04-23T00:44:58.444Z,25.9
2018-04-23T00:45:48.513Z,25.9
2018-04-23T00:46:38.310Z,25.9
2018-04-23T00:47:28.566Z,25.9
2018-04-23T00:48:18.379Z,25.9
2018-04-23T00:49:09.263Z,25.9
2018-04-23T00:49:58.615Z,25.9
2018-04-23T00:50:48.908Z,25.9
2018-04-23T00:51:38.993Z,25.9
2018-04-23T00:52:28.516Z,25.9
2018-04-23T00:53:18.822Z,25.9
2018-04-23T00:54:09.171Z,25.9
2018-04-23T00:54:58.965Z,25.9
2018-04-23T00:55:49.298Z,25.9
2018-04-23T00:56:39.076Z,25.9
2018-04-23T00:57:29.883Z,25.9
2018-04-23T00:58:19.476Z,25.9
2018-04-23T00:59:10.034Z,25.9
2018-04-23T01:00:00.139Z,25.9
2018-04-23T01:00:50.177Z,25.9
2018-04-23T01:01:39.941Z,25.9
2018-04-23T01:02:29.613Z,25.9
2018-04-23T01:03:20.378Z,25.9
2018-04-23T01:04:10.400Z,25.9
2018-04-23T01:05:00.505Z,25.9
2018-04-23T01:05:50.516Z,25.9
2018-04-23T01:06:40.586Z,25.9
2018-04-23T01:07:29.884Z,25.9
2018-04-23T01:08:20.741Z,25.9
2018-04-23T01:09:10.530Z,25.9
2018-04-23T01:10:00.584Z,25.9
2018-04-23T01:10:50.350Z,25.9
2018-04-23T01:11:40.409Z,25.9
2018-04-23T01:12:31.075Z,25.9
2018-04-23T01:13:20.556Z,25.9
2018-04-23T01:14:11.206Z,25.9
2018-04-23T01:15:00.685Z,25.9
2018-04-23T01:15:51.031Z,25.9
2018-04-23T01:16:41.097Z,25.9
2018-04-23T01:17:31.485Z,25.9
2018-04-23T01:18:21.508Z,25.9
2018-04-23T01:19:11.306Z,25.9
2018-04-23T01:20:01.642Z,25.9
2018-04-23T01:20:51.659Z,25.9
2018-04-23T01:21:41.169Z,25.9
2018-04-23T01:22:31.817Z,25.9
2018-04-23T01:23:21.608Z,25.9
2018-04-23T01:24:11.656Z,25.9
2018-04-23T01:25:01.988Z,25.9
2018-04-23T01:25:51.304Z,25.9
2018-04-23T01:26:41.650Z,25.9
2018-04-23T01:27:31.739Z,25.9
2018-04-23T01:28:21.494Z,25.9
2018-04-23T01:29:11.557Z,25.9
2018-04-23T01:30:01.931Z,25.9
2018-04-23T01:30:52.007Z,25.9
2018-04-23T01:31:41.749Z,25.9
2018-04-23T01:32:31.811Z,25.9
2018-04-23T01:33:21.676Z,25.9
2018-04-23T01:34:12.713Z,25.9
2018-04-23T01:35:01.936Z,25.9
2018-04-23T01:35:52.638Z,25.9
2018-04-23T01:36:42.638Z,25.9
2018-04-23T01:37:32.711Z,25.9
2018-04-23T01:38:22.732Z,25.9
2018-04-23T01:39:12.870Z,25.9
2018-04-23T01:40:03.158Z,25.9
2018-04-23T01:40:53.203Z,25.9
2018-04-23T01:41:43.305Z,25.9
2018-04-23T01:42:33.356Z,25.9
2018-04-23T01:43:23.436Z,25.9
2018-04-23T01:44:13.001Z,25.9
2018-04-23T01:45:03.287Z,25.9
2018-04-23T01:45:53.600Z,25.9
2018-04-23T01:46:43.666Z,25.9
2018-04-23T01:47:33.483Z,25.9
2018-04-23T01:48:23.539Z,25.9
2018-04-23T01:49:13.875Z,25.9
2018-04-23T01:50:03.916Z,25.9
2018-04-23T01:50:54.004Z,25.9
2018-04-23T01:51:44.496Z,25.9
2018-04-23T01:52:34.294Z,25.9
2018-04-23T01:53:23.619Z,25.9
2018-04-23T01:54:14.013Z,25.9
2018-04-23T01:55:04.354Z,25.9
2018-04-23T01:55:54.083Z,25.9
2018-04-23T01:56:44.424Z,25.9
2018-04-23T01:57:33.959Z,25.9
2018-04-23T01:58:24.565Z,25.9
2018-04-23T01:59:14.826Z,25.9
2018-04-23T02:00:04.425Z,25.9
2018-04-23T02:00:54.496Z,25.9
2018-04-23T02:01:44.803Z,25.9
2018-04-23T02:02:34.318Z,25.9
2018-04-23T02:03:23.824Z,25.9
2018-04-23T02:04:14.167Z,25.9
2018-04-23T02:05:04.839Z,25.9
2018-04-23T02:05:54.556Z,25.9
2018-04-23T02:06:44.924Z,25.9
2018-04-23T02:07:34.700Z,25.9
2018-04-23T02:08:25.083Z,25.9
2018-04-23T02:09:15.389Z,25.9
2018-04-23T02:10:05.351Z,25.9
2018-04-23T02:10:55.261Z,25.9
2018-04-23T02:11:44.427Z,25.9
2018-04-23T02:12:35.374Z,25.9
2018-04-23T02:13:25.715Z,25.9
2018-04-23T02:14:15.796Z,25.9
2018-04-23T02:15:05.824Z,25.9
2018-04-23T02:15:55.355Z,25.9
2018-04-23T02:16:45.952Z,25.9
2018-04-23T02:17:36.058Z,25.9
2018-04-23T02:18:26.150Z,25.9
2018-04-23T02:19:15.884Z,25.9
2018-04-23T02:20:05.631Z,25.9
2018-04-23T02:20:56.260Z,25.9
2018-04-23T02:21:45.772Z,25.9
2018-04-23T02:22:35.861Z,25.9
2018-04-23T02:23:26.537Z,25.9
2018-04-23T02:24:16.522Z,25.9
2018-04-23T02:25:06.074Z,25.9
2018-04-23T02:25:56.724Z,25.9
2018-04-23T02:26:46.451Z,25.9
2018-04-23T02:27:36.236Z,25.9
2018-04-23T02:28:26.575Z,25.9
2018-04-23T02:29:16.934Z,25.9
2018-04-23T02:30:06.697Z,25.9
2018-04-23T02:30:56.773Z,25.9
2018-04-23T02:31:46.298Z,25.9
2018-04-23T02:32:36.649Z,25.9
2018-04-23T02:33:26.966Z,25.9
2018-04-23T02:34:16.773Z,25.9
2018-04-23T02:35:06.820Z,25.9
2018-04-23T02:35:57.240Z,25.9
2018-04-23T02:36:47.431Z,25.9
2018-04-23T02:37:37.075Z,25.9
2018-04-23T02:38:28.105Z,25.9
2018-04-23T02:39:17.435Z,25.9
2018-04-23T02:40:07.508Z,25.9
2018-04-23T02:40:57.549Z,25.9
2018-04-23T02:41:47.909Z,25.9
2018-04-23T02:42:38.024Z,25.9
2018-04-23T02:43:27.472Z,25.9
2018-04-23T02:44:18.110Z,25.9
2018-04-23T02:45:08.187Z,25.9
2018-04-23T02:45:58.195Z,25.9
2018-04-23T02:46:48.000Z,25.9
2018-04-23T02:47:37.790Z,25.9
2018-04-23T02:48:27.834Z,25.9
2018-04-23T02:49:17.915Z,25.9
2018-04-23T02:50:08.289Z,25.9
2018-04-23T02:50:58.827Z,25.9
2018-04-23T02:51:48.671Z,25.9
2018-04-23T02:52:38.452Z,25.9
2018-04-23T02:53:28.238Z,25.9
2018-04-23T02:54:18.583Z,25.9
2018-04-23T02:55:08.393Z,25.9
2018-04-23T02:55:58.701Z,25.9
2018-04-23T02:56:48.746Z,25.9
2018-04-23T02:57:38.834Z,25.9
2018-04-23T02:58:28.621Z,25.9
2018-04-23T02:59:19.215Z,25.9
2018-04-23T03:00:09.045Z,25.9
2018-04-23T03:00:58.247Z,25.9
2018-04-23T03:01:49.125Z,25.9
2018-04-23T03:02:39.540Z,25.9
2018-04-23T03:03:29.338Z,25.9
2018-04-23T03:04:19.619Z,25.9
2018-04-23T03:05:09.404Z,25.9
2018-04-23T03:05:59.462Z,25.9
2018-04-23T03:06:49.228Z,25.9
2018-04-23T03:07:39.871Z,25.9
2018-04-23T03:08:29.656Z,25.9
2018-04-23T03:09:19.988Z,25.9
2018-04-23T03:10:09.797Z,25.9
2018-04-23T03:10:59.552Z,25.9
2018-04-23T03:11:49.873Z,25.9
2018-04-23T03:12:39.744Z,25.9
2018-04-23T03:13:30.038Z,25.9
2018-04-23T03:14:20.099Z,25.9
2018-04-23T03:15:10.165Z,25.9
2018-04-23T03:16:00.553Z,25.9
2018-04-23T03:16:50.295Z,25.8
2018-04-23T03:17:40.620Z,25.8
2018-04-23T03:18:30.426Z,25.8
2018-04-23T03:19:20.461Z,25.8
2018-04-23T03:20:11.261Z,25.8
2018-04-23T03:21:00.600Z,25.8
2018-04-23T03:21:50.941Z,25.7
2018-04-23T03:22:40.732Z,25.6
2018-04-23T03:23:30.794Z,25.6
2018-04-23T03:24:20.299Z,25.6
2018-04-23T03:25:10.945Z,25.6
2018-04-23T03:26:01.371Z,25.6
2018-04-23T03:26:50.761Z,25.6
2018-04-23T03:27:41.113Z,25.6
2018-04-23T03:28:31.223Z,25.5
2018-04-23T03:29:21.236Z,25.5
2018-04-23T03:30:11.598Z,25.5
2018-04-23T03:31:01.675Z,25.5
2018-04-23T03:31:51.155Z,25.4
2018-04-23T03:32:41.508Z,25.4
2018-04-23T03:33:31.806Z,25.4
2018-04-23T03:34:21.868Z,25.4
2018-04-23T03:35:11.663Z,25.4
2018-04-23T03:36:02.032Z,25.4
2018-04-23T03:36:51.814Z,25.4
2018-04-23T03:37:41.985Z,25.4
2018-04-23T03:38:32.222Z,25.4
2018-04-23T03:39:22.298Z,25.4
2018-04-23T03:40:12.064Z,25.4
2018-04-23T03:41:02.416Z,25.3
2018-04-23T03:41:52.475Z,25.3
2018-04-23T03:42:42.592Z,25.4
2018-04-23T03:43:32.037Z,25.3
2018-04-23T03:44:22.780Z,25.3
2018-04-23T03:45:12.175Z,25.3
2018-04-23T03:46:02.537Z,25.3
2018-04-23T03:46:52.297Z,25.3
2018-04-23T03:47:42.663Z,25.3
2018-04-23T03:48:32.985Z,25.3
2018-04-23T03:49:22.759Z,25.3
2018-04-23T03:50:12.829Z,25.3
2018-04-23T03:51:03.147Z,25.3
2018-04-23T03:51:52.957Z,25.3
2018-04-23T03:52:43.277Z,25.3
2018-04-23T03:53:32.798Z,25.3
2018-04-23T03:54:23.122Z,25.3
2018-04-23T03:55:13.485Z,25.3
2018-04-23T03:56:03.299Z,25.3
2018-04-23T03:56:53.600Z,25.3
2018-04-23T03:57:43.420Z,25.3
2018-04-23T03:58:33.212Z,25.2
2018-04-23T03:59:23.796Z,25.3
2018-04-23T04:00:13.869Z,25.2
2018-04-23T04:01:03.397Z,25.3
2018-04-23T04:01:53.478Z,25.2
2018-04-23T04:02:43.485Z,25.2
2018-04-23T04:03:33.863Z,25.2
2018-04-23T04:04:24.186Z,25.2
2018-04-23T04:05:14.283Z,25.2
2018-04-23T04:06:03.797Z,25.2
2018-04-23T04:06:54.373Z,25.2
2018-04-23T04:07:43.871Z,25.2
2018-04-23T04:08:34.501Z,25.2
2018-04-23T04:09:24.174Z,25.2
2018-04-23T04:10:14.659Z,25.2
2018-04-23T04:11:04.423Z,25.2
2018-04-23T04:11:54.212Z,25.2
2018-04-23T04:12:44.570Z,25.2
2018-04-23T04:13:34.340Z,25.2
2018-04-23T04:14:24.417Z,25.1
2018-04-23T04:15:14.437Z,25.2
2018-04-23T04:16:05.166Z,25.1
2018-04-23T04:16:55.110Z,25.1
2018-04-23T04:17:45.225Z,25.2
2018-04-23T04:18:35.266Z,25.1
2018-04-23T04:19:25.361Z,25.1
2018-04-23T04:20:14.838Z,25.1
2018-04-23T04:21:04.911Z,25.1
2018-04-23T04:21:54.983Z,25.1
2018-04-23T04:22:45.616Z,25.1
2018-04-23T04:23:35.391Z,25.1
2018-04-23T04:24:25.472Z,25.1
2018-04-23T04:25:15.803Z,25.1
2018-04-23T04:26:05.857Z,25.1
2018-04-23T04:26:55.342Z,25.1
2018-04-23T04:27:45.140Z,25
2018-04-23T04:28:36.059Z,25
2018-04-23T04:29:25.852Z,25
2018-04-23T04:30:15.894Z,25
2018-04-23T04:31:05.701Z,24.9
2018-04-23T04:31:56.289Z,24.9
2018-04-23T04:32:46.356Z,24.9
2018-04-23T04:33:36.171Z,24.9
2018-04-23T04:34:26.491Z,24.9
2018-04-23T04:35:16.241Z,25
2018-04-23T04:36:06.325Z,24.9
2018-04-23T04:36:56.410Z,24.9
2018-04-23T04:37:46.536Z,24.9
2018-04-23T04:38:36.524Z,24.9
2018-04-23T04:39:26.864Z,24.9
2018-04-23T04:40:16.697Z,24.9
2018-04-23T04:41:06.767Z,24.9
2018-04-23T04:41:57.095Z,24.9
2018-04-23T04:42:47.208Z,24.9
2018-04-23T04:43:36.654Z,24.9
2018-04-23T04:44:27.007Z,24.9
2018-04-23T04:45:16.761Z,24.9
2018-04-23T04:46:07.446Z,24.9
2018-04-23T04:46:57.528Z,24.9
2018-04-23T04:47:47.296Z,24.9
2018-04-23T04:48:37.607Z,24.9
2018-04-23T04:49:27.682Z,24.9
2018-04-23T04:50:17.769Z,24.9
2018-04-23T04:51:07.777Z,24.9
2018-04-23T04:51:57.901Z,24.9
2018-04-23T04:52:47.320Z,24.9
2018-04-23T04:53:37.476Z,24.9
2018-04-23T04:54:27.784Z,24.9
2018-04-23T04:55:17.529Z,24.9
2018-04-23T04:56:07.599Z,24.9
2018-04-23T04:56:57.921Z,24.9
2018-04-23T04:57:47.428Z,24.9
2018-04-23T04:58:38.313Z,24.9
2018-04-23T04:59:28.407Z,24.9
2018-04-23T05:00:18.454Z,24.9
2018-04-23T05:01:07.977Z,24.9
2018-04-23T05:01:58.040Z,24.9
2018-04-23T05:02:48.688Z,24.9
2018-04-23T07:13:33.854Z,51.1
2018-04-23T07:14:24.150Z,51.3
2018-04-23T07:15:14.253Z,51.4
2018-04-23T07:16:04.297Z,51.5
2018-04-23T07:16:53.885Z,51.6
2018-04-23T07:17:44.125Z,51.7
2018-04-23T07:18:34.559Z,51.8
2018-04-23T07:20:14.621Z,52.1
2018-04-23T07:21:04.120Z,52.3
2018-04-23T07:22:44.519Z,52.6
2018-04-23T07:23:34.948Z,52.7
2018-04-23T07:24:24.638Z,52.8
2018-04-23T07:25:14.745Z,53
2018-04-23T07:26:04.499Z,53.1
2018-04-23T07:26:54.842Z,53.3
2018-04-23T07:27:44.923Z,53.4
2018-04-23T07:28:34.738Z,53.5
2018-04-23T07:29:25.560Z,53.7
2018-04-23T07:30:14.886Z,53.8
2018-04-23T07:31:05.480Z,53.9
2018-04-23T07:31:54.005Z,54.1
2018-04-23T07:32:45.569Z,54.3
2018-04-23T07:33:34.866Z,54.4
2018-04-23T07:34:25.697Z,54.6
2018-04-23T07:35:15.491Z,54.7
2018-04-23T07:36:05.358Z,54.8
2018-04-23T07:36:55.357Z,54.9
2018-04-23T07:37:45.209Z,55.1
2018-04-23T07:38:36.021Z,55.2
2018-04-23T07:39:25.914Z,55.3
2018-04-23T07:40:16.165Z,55.5
2018-04-23T07:41:06.215Z,55.6
2018-04-23T07:41:55.756Z,55.8
2018-04-23T07:42:45.794Z,55.9
2018-04-23T07:43:36.148Z,56.1
2018-04-23T07:44:26.188Z,56.3
2018-04-23T07:45:15.981Z,56.3
2018-04-23T07:46:06.048Z,56.5
2018-04-23T07:46:56.655Z,56.6
2018-04-23T07:47:46.486Z,56.8
2018-04-23T07:48:36.230Z,56.8
2018-04-23T07:49:26.422Z,57
2018-04-23T07:50:16.688Z,57.2
2018-04-23T07:51:06.761Z,57.3
2018-04-23T07:51:56.504Z,57.4
2018-04-23T07:52:47.149Z,57.6
2018-04-23T07:53:36.938Z,57.7
2018-04-23T07:54:26.441Z,57.9
2018-04-23T07:55:17.053Z,58
2018-04-23T07:56:06.838Z,58.1
2018-04-23T07:56:57.515Z,58.3
2018-04-23T07:57:47.260Z,58.4
2018-04-23T07:59:27.672Z,58.7
2018-04-23T08:00:17.173Z,58.8
2018-04-23T08:01:07.258Z,58.9
2018-04-23T08:01:57.862Z,59.1
2018-04-23T08:02:47.090Z,59.3
2018-04-23T08:03:37.693Z,59.4
2018-04-23T08:04:27.506Z,59.5
2018-04-23T08:05:17.845Z,59.6
2018-04-23T08:06:07.945Z,59.8
2018-04-23T08:06:58.406Z,59.9
2018-04-23T08:07:48.008Z,60.1
2018-04-23T08:08:38.403Z,60.2
2018-04-23T08:09:28.443Z,60.3
2018-04-23T08:10:18.487Z,60.4
2018-04-23T08:11:07.803Z,60.5
2018-04-23T08:11:58.383Z,60.6
2018-04-23T08:12:48.680Z,60.8
2018-04-23T08:13:37.901Z,60.9
2018-04-23T08:14:27.401Z,60.9
2018-04-23T08:15:18.613Z,61.1
2018-04-23T08:16:08.236Z,61.3
2018-04-23T08:16:58.457Z,61.4
2018-04-23T08:17:48.501Z,61.4
2018-04-23T08:18:37.633Z,61.6
2018-04-23T08:19:28.724Z,61.7
2018-04-23T08:20:18.267Z,61.8
2018-04-23T08:21:09.058Z,61.9
2018-04-23T08:21:59.167Z,62.1
2018-04-23T08:22:49.215Z,62.1
2018-04-23T08:23:39.612Z,62.3
2018-04-23T08:24:29.633Z,62.4
2018-04-23T08:25:18.368Z,62.4
2018-04-23T08:26:09.182Z,62.6
2018-04-23T08:26:59.241Z,62.6
2018-04-23T08:27:49.346Z,62.8
2018-04-23T08:28:39.641Z,62.9
2018-04-23T08:29:29.788Z,62.9
2018-04-23T08:30:20.084Z,63.1
2018-04-23T08:31:10.186Z,63.2
2018-04-23T08:32:00.352Z,63.3
2018-04-23T08:32:49.966Z,63.4
2018-04-23T08:33:39.478Z,63.4
2018-04-23T08:34:30.118Z,63.6
2018-04-23T08:35:20.447Z,63.6
2018-04-23T08:36:09.419Z,63.8
2018-04-23T08:37:00.316Z,63.8
2018-04-23T08:37:50.086Z,63.9
2018-04-23T08:38:40.441Z,63.9
2018-04-23T08:39:30.223Z,64.1
2018-04-23T08:40:20.026Z,64.1
2018-04-23T08:41:10.919Z,64.3
2018-04-23T08:42:00.980Z,64.4
2018-04-23T08:42:50.771Z,64.4
2018-04-23T08:43:41.149Z,64.5
2018-04-23T08:44:31.152Z,64.6
2018-04-23T08:45:21.202Z,64.6
2018-04-23T08:46:11.002Z,64.8
2018-04-23T08:47:01.076Z,64.8
2018-04-23T08:47:51.146Z,64.9
2018-04-23T08:48:41.206Z,65
2018-04-23T08:49:31.581Z,65.1
2018-04-23T08:50:21.804Z,65.1
2018-04-23T08:51:11.389Z,65.3
2018-04-23T08:52:01.744Z,65.3
2018-04-23T08:52:51.553Z,65.4
2018-04-23T08:53:41.653Z,65.4
2018-04-23T08:54:31.939Z,65.6
2018-04-23T08:55:21.766Z,65.7
2018-04-23T08:56:11.821Z,65.8
2018-04-23T08:57:01.614Z,65.8
2018-04-23T08:57:52.209Z,65.9
2018-04-23T08:58:42.000Z,65.9
2018-04-23T08:59:31.836Z,66.1
2018-04-23T09:00:22.616Z,66.1
2018-04-23T09:01:12.501Z,66.3
2018-04-23T09:02:02.300Z,66.3
2018-04-23T09:02:52.072Z,66.3
2018-04-23T09:03:42.409Z,66.4
2018-04-23T09:04:32.507Z,66.6
2018-04-23T09:05:22.549Z,66.6
2018-04-23T09:06:12.070Z,66.7
2018-04-23T09:07:02.109Z,66.9
2018-04-23T09:07:52.756Z,66.9
2018-04-23T09:08:43.103Z,66.9
2018-04-23T09:09:32.896Z,67
2018-04-23T09:10:22.954Z,67.1
2018-04-23T09:11:13.274Z,67.3
2018-04-23T09:12:03.372Z,67.3
2018-04-23T09:12:52.857Z,67.4
2018-04-23T09:13:42.636Z,67.4
2018-04-23T09:14:33.591Z,67.5
2018-04-23T09:15:23.622Z,67.6
2018-04-23T09:16:13.140Z,67.7
2018-04-23T09:17:03.162Z,67.8
2018-04-23T09:17:54.423Z,67.9
2018-04-23T09:18:43.557Z,67.9
2018-04-23T09:19:33.682Z,68.1
2018-04-23T09:20:22.300Z,68.1
2018-04-23T09:21:13.500Z,68.1
2018-04-23T09:22:03.583Z,68.3
2018-04-23T09:22:53.936Z,68.3
2018-04-23T09:23:43.746Z,68.3
2018-04-23T09:24:34.344Z,68.5
2018-04-23T09:25:24.142Z,68.6
2018-04-23T09:26:14.495Z,68.7
2018-04-23T09:27:04.004Z,68.7
2018-04-23T09:27:54.057Z,68.8
2018-04-23T09:28:44.397Z,69
2018-04-23T09:29:34.253Z,68.9
2018-04-23T09:30:24.812Z,69.1
2018-04-23T09:31:14.548Z,69.1
2018-04-23T09:32:04.102Z,69.1
2018-04-23T09:32:53.889Z,69.3
2018-04-23T09:33:44.184Z,69.4
2018-04-23T09:34:35.107Z,69.4
2018-04-23T09:35:24.651Z,69.4
2018-04-23T09:36:14.965Z,69.6
2018-04-23T09:37:04.818Z,69.6
2018-04-23T09:37:55.061Z,69.8
2018-04-23T09:38:45.137Z,69.8
2018-04-23T09:39:34.939Z,69.9
2018-04-23T09:40:24.417Z,69.9
2018-04-23T09:41:15.343Z,70
2018-04-23T09:42:05.407Z,70.3
2018-04-23T09:42:55.736Z,70.2
2018-04-23T09:43:45.523Z,70.1
2018-04-23T09:44:36.319Z,70.3
2018-04-23T09:45:25.710Z,70.3
2018-04-23T09:46:15.523Z,70.4
2018-04-23T09:47:05.833Z,70.5
2018-04-23T09:47:55.593Z,70.6
2018-04-23T09:48:45.663Z,70.6
2018-04-23T09:49:36.016Z,70.8
2018-04-23T09:50:26.341Z,70.8
2018-04-23T09:51:15.715Z,70.9
2018-04-23T09:52:06.547Z,70.9
2018-04-23T09:52:56.278Z,71
2018-04-23T09:53:46.367Z,71.1
2018-04-23T09:54:36.723Z,71.2
2018-04-23T09:55:25.688Z,71.3
2018-04-23T09:56:16.322Z,71.4
2018-04-23T09:57:06.870Z,71.4
2018-04-23T09:57:56.674Z,71.4
2018-04-23T09:58:46.970Z,71.6
2018-04-23T09:59:35.795Z,71.6
2018-04-23T10:00:27.137Z,71.8
2018-04-23T10:01:17.179Z,71.8
2018-04-23T10:02:07.304Z,71.9
2018-04-23T10:02:57.338Z,71.9
2018-04-23T10:03:46.819Z,72.1
2018-04-23T10:04:36.918Z,72.1
2018-04-23T10:05:27.249Z,72.3
2018-04-23T10:06:17.345Z,72.3
2018-04-23T10:07:07.130Z,72
2018-04-23T10:07:57.451Z,71.5
2018-04-23T10:08:47.783Z,70.8
2018-04-23T10:09:37.874Z,70.5
2018-04-23T10:10:27.894Z,71.1
2018-04-23T10:11:17.705Z,72.2
2018-04-23T10:12:08.293Z,72.9
2018-04-23T10:12:57.832Z,73.2
2018-04-23T10:13:47.936Z,73.1
2018-04-23T10:14:38.247Z,73
2018-04-23T10:15:27.543Z,72.9
2018-04-23T10:16:17.817Z,73.1
2018-04-23T10:17:08.430Z,73.1
2018-04-23T10:17:57.935Z,73.3
2018-04-23T10:18:48.548Z,73.3
2018-04-23T10:19:37.784Z,73.4
2018-04-23T10:20:28.700Z,73.4
2018-04-23T10:21:18.747Z,73.6
2018-04-23T10:22:08.283Z,73.6
2018-04-23T10:22:58.887Z,73.7
2018-04-23T10:23:48.728Z,73.8
2018-04-23T10:24:38.195Z,73.8
2018-04-23T10:25:28.605Z,73.9
2018-04-23T10:26:19.145Z,73.9
2018-04-23T10:27:09.191Z,74
2018-04-23T10:27:59.014Z,74.1
2018-04-23T10:28:48.782Z,74.1
2018-04-23T10:29:39.179Z,74.2
2018-04-23T10:30:29.515Z,74.3
2018-04-23T10:31:19.279Z,74.4
2018-04-23T10:32:09.070Z,74.4
2018-04-23T10:32:59.554Z,74.5
2018-04-23T10:33:49.801Z,74.6
2018-04-23T10:34:39.268Z,74.7
2018-04-23T10:35:29.878Z,74.7
2018-04-23T10:36:19.953Z,74.8
2018-04-23T10:37:09.736Z,74.8
2018-04-23T10:37:59.800Z,74.9
2018-04-23T10:38:49.581Z,74.9
2018-04-23T10:39:40.204Z,74.9
2018-04-23T10:40:29.706Z,75.1
2018-04-23T10:41:19.771Z,75.1
2018-04-23T10:42:10.392Z,75.2
2018-04-23T10:43:00.476Z,75.3
2018-04-23T10:43:50.231Z,75.3
2018-04-23T10:44:40.042Z,75.4
2018-04-23T10:45:31.116Z,75.4
2018-04-23T10:46:19.892Z,75.4
2018-04-23T10:47:10.769Z,75.5
2018-04-23T10:48:00.862Z,75.6
2018-04-23T10:48:50.962Z,75.6
2018-04-23T10:49:40.414Z,75.7
2018-04-23T10:50:30.797Z,75.7
2018-04-23T10:51:20.841Z,75.8
2018-04-23T10:52:10.038Z,75.8
2018-04-23T10:53:00.994Z,75.9
2018-04-23T10:53:51.291Z,75.9
2018-04-23T10:54:41.117Z,76
2018-04-23T10:55:31.201Z,76.1
2018-04-23T10:56:20.930Z,76.1
2018-04-23T10:57:10.557Z,76.1
2018-04-23T10:58:01.073Z,76.2
2018-04-23T10:58:51.722Z,76.3
2018-04-23T10:59:41.516Z,76.3
2018-04-23T11:00:31.561Z,76.4
2018-04-23T11:01:21.358Z,76.4
2018-04-23T11:02:11.398Z,76.4
2018-04-23T11:03:01.268Z,76.5
2018-04-23T11:03:51.076Z,76.6
2018-04-23T11:04:40.781Z,76.6
2018-04-23T11:05:31.670Z,76.6
2018-04-23T11:06:21.703Z,76.8
2018-04-23T11:07:12.382Z,76.8
2018-04-23T11:08:01.914Z,76.8
2018-04-23T11:08:52.227Z,76.9
2018-04-23T11:09:42.474Z,76.9
2018-04-23T11:10:32.592Z,76.9
2018-04-23T11:11:22.684Z,77
2018-04-23T11:12:12.755Z,77.1
2018-04-23T11:13:01.324Z,77.1
2018-04-23T11:13:52.595Z,77.1
2018-04-23T11:14:42.402Z,77.2
2018-04-23T11:15:32.477Z,77.3
2018-04-23T11:16:23.072Z,77.3
2018-04-23T11:17:12.323Z,77.4
2018-04-23T11:18:02.942Z,77.4
2018-04-23T11:18:52.727Z,77.4
2018-04-23T11:19:43.101Z,77.5
2018-04-23T11:20:32.878Z,77.5
2018-04-23T11:21:22.654Z,77.6
2018-04-23T11:22:13.286Z,77.6
2018-04-23T11:23:02.806Z,77.6
2018-04-23T11:23:53.111Z,77.7
2018-04-23T11:24:43.578Z,77.8
2018-04-23T11:25:33.081Z,77.8
2018-04-23T11:26:23.883Z,77.8
2018-04-23T11:27:12.836Z,77.9
2018-04-23T11:28:03.459Z,77.9
2018-04-23T11:28:53.792Z,77.9
2018-04-23T11:29:43.316Z,78
2018-04-23T11:30:33.449Z,78
2018-04-23T11:31:23.710Z,78.1
2018-04-23T11:32:13.810Z,78.1
2018-04-23T11:33:04.153Z,78.1
2018-04-23T11:33:54.507Z,78.1
2018-04-23T11:34:44.256Z,78.3
2018-04-23T11:35:34.615Z,78.3
2018-04-23T11:36:24.686Z,78.3
2018-04-23T11:37:13.992Z,78.1
2018-04-23T11:38:04.269Z,78
2018-04-23T11:38:54.120Z,78
2018-04-23T11:39:44.410Z,77.9
2018-04-23T11:40:33.875Z,77.9
2018-04-23T11:41:24.518Z,78
2018-04-23T11:42:14.854Z,78
2018-04-23T11:43:04.417Z,78
2018-04-23T11:43:54.226Z,78.1
2018-04-23T11:44:44.287Z,78.1
2018-04-23T11:45:35.380Z,78.1
2018-04-23T11:46:24.646Z,78.1
2018-04-23T11:47:15.578Z,78.2
2018-04-23T11:48:05.576Z,78.2
2018-04-23T11:48:55.701Z,78.3
2018-04-23T11:49:45.137Z,78.3
2018-04-23T11:50:35.800Z,78.4
2018-04-23T11:51:25.280Z,78.4
2018-04-23T11:52:15.101Z,78.4
2018-04-23T11:53:06.117Z,78.5
2018-04-23T11:53:55.806Z,78.5
2018-04-23T11:54:45.286Z,78.6
2018-04-23T11:55:36.174Z,78.6
2018-04-23T11:56:25.712Z,78.6
2018-04-23T11:57:16.030Z,78.7
2018-04-23T11:58:05.843Z,78.7
2018-04-23T11:58:56.210Z,78.7
2018-04-23T11:59:45.848Z,78.8
2018-04-23T12:00:36.288Z,78.7
2018-04-23T12:01:26.390Z,78.6
2018-04-23T12:02:16.673Z,78.6
2018-04-23T12:03:06.822Z,78.6
2018-04-23T12:03:56.552Z,78.6
2018-04-23T12:04:46.908Z,78.7
2018-04-23T12:05:36.972Z,78.8
2018-04-23T12:06:25.894Z,78.8
2018-04-23T12:07:16.810Z,78.9
2018-04-23T12:08:06.047Z,78.8
2018-04-23T12:08:56.093Z,78.9
2018-04-23T12:09:46.537Z,78.9
2018-04-23T12:10:36.509Z,78.9
2018-04-23T12:11:27.161Z,79
2018-04-23T12:12:16.778Z,79
2018-04-23T12:13:06.275Z,79
2018-04-23T12:13:55.943Z,79.1
2018-04-23T12:14:47.143Z,79.1
2018-04-23T12:15:36.914Z,79.1
2018-04-23T12:16:27.790Z,79.1
2018-04-23T12:17:17.888Z,79
2018-04-23T12:18:07.379Z,79.1
2018-04-23T12:18:57.691Z,79.1
2018-04-23T12:19:47.820Z,79.1
2018-04-23T12:20:37.022Z,79.2
2018-04-23T12:21:27.923Z,79.2
2018-04-23T12:22:17.747Z,79.1
2018-04-23T12:23:07.810Z,79.2
2018-04-23T12:23:58.109Z,79.1
2018-04-23T12:24:47.641Z,79.2
2018-04-23T12:25:38.517Z,79.2
2018-04-23T12:26:28.576Z,79.1
2018-04-23T12:27:18.686Z,79.2
2018-04-23T12:28:08.433Z,79.1
2018-04-23T12:28:58.810Z,79.1
2018-04-23T12:29:48.566Z,79.1
2018-04-23T12:30:38.931Z,79.2
2018-04-23T12:31:29.008Z,79.2
2018-04-23T12:32:18.826Z,79.2
2018-04-23T12:33:08.897Z,79.2
2018-04-23T12:33:59.250Z,79.2
2018-04-23T12:34:49.042Z,79.2
2018-04-23T12:35:39.107Z,79.2
2018-04-23T12:36:29.160Z,79.2
2018-04-23T12:37:19.224Z,79.2
2018-04-23T12:38:09.638Z,79.2
2018-04-23T12:38:59.047Z,79.2
2018-04-23T12:39:49.119Z,79.2
2018-04-23T12:40:39.766Z,79.1
2018-04-23T12:41:29.838Z,79.1
2018-04-23T12:42:19.340Z,79.1
2018-04-23T12:43:09.698Z,79.1
2018-04-23T12:43:59.731Z,79.1
2018-04-23T12:45:04.183Z,79
2018-04-23T12:45:40.174Z,79
2018-04-23T12:46:28.799Z,79.1
2018-04-23T12:47:20.238Z,78.9
2018-04-23T12:48:10.043Z,79
2018-04-23T12:49:00.374Z,78.9
2018-04-23T12:49:49.639Z,78.9
2018-04-23T12:50:39.957Z,78.8
2018-04-23T12:51:30.582Z,78.8
2018-04-23T12:52:20.391Z,78.8
2018-04-23T12:53:10.697Z,78.7
2018-04-23T12:53:59.921Z,78.8
2018-04-23T12:54:50.868Z,78.7
2018-04-23T12:55:40.896Z,78.7
2018-04-23T12:56:30.237Z,78.7
2018-04-23T12:57:20.458Z,78.7
2018-04-23T12:58:10.811Z,78.6
2018-04-23T12:59:00.886Z,78.7
2018-04-23T12:59:50.951Z,78.6
2018-04-23T13:00:41.308Z,78.6
2018-04-23T13:01:31.362Z,78.7
2018-04-23T13:02:20.865Z,78.6
2018-04-23T13:03:10.951Z,78.6
2018-04-23T13:04:01.568Z,78.6
2018-04-23T13:04:51.630Z,78.6
2018-04-23T13:05:41.410Z,78.6
2018-04-23T13:06:31.759Z,78.5
2018-04-23T13:07:21.831Z,78.5
2018-04-23T13:08:11.622Z,78.5
2018-04-23T13:09:00.842Z,78.4
2018-04-23T13:09:50.897Z,78.4
2018-04-23T13:10:41.519Z,78.4
2018-04-23T13:11:31.617Z,78.4
2018-04-23T13:12:22.889Z,78.4
2018-04-23T13:13:11.728Z,78.3
2018-04-23T13:14:01.809Z,78.3
2018-04-23T13:14:52.152Z,78.3
2018-04-23T13:15:41.069Z,78.3
2018-04-23T13:16:32.555Z,78.2
2018-04-23T13:17:22.402Z,78.2
2018-04-23T13:18:11.942Z,78.2
2018-04-23T13:19:02.783Z,78.2
2018-04-23T13:19:52.515Z,78.1
2018-04-23T13:20:42.874Z,78.1
2018-04-23T13:21:32.992Z,78